Time;durP1;ratioP1;P1;durP2;ratioP2;P2;SDS_P1;SDS_P2;PMS_P1;PMS_P2;Temp;Humidity;BMP_temperature;BMP_pressure;BME280_temperature;BME280_humidity;BME280_pressure;Samples;Min_cycle;Max_cycle;Signal;HPM_P1;HPM_P2
2024/03/24 00:01:14;;;;;;;15.32;2.70;;;11.00;84.50;;;;;;5012575;28;20036;-55
2024/03/24 00:03:39;;;;;;;8.88;1.85;;;11.00;83.90;;;;;;5046900;28;20037;-56
2024/03/24 00:06:05;;;;;;;7.93;1.80;;;11.00;84.00;;;;;;5028998;28;20048;-56
2024/03/24 00:08:31;;;;;;;7.40;1.90;;;10.90;83.90;;;;;;5029070;28;20492;-56
2024/03/24 00:10:57;;;;;;;11.63;2.20;;;10.90;84.00;;;;;;4996270;28;20026;-55
2024/03/24 00:13:23;;;;;;;13.25;2.58;;;10.90;84.00;;;;;;5012532;28;20031;-56
2024/03/24 00:15:49;;;;;;;12.57;2.08;;;10.90;84.00;;;;;;5028990;28;20034;-56
2024/03/24 00:18:14;;;;;;;9.20;1.70;;;10.90;84.10;;;;;;5012386;28;20068;-55
2024/03/24 00:20:40;;;;;;;10.02;2.05;;;10.90;84.00;;;;;;5028426;28;20034;-56
2024/03/24 00:23:07;;;;;;;9.50;1.90;;;10.90;84.00;;;;;;5046672;28;20033;-56
2024/03/24 00:25:33;;;;;;;9.50;2.10;;;10.90;84.10;;;;;;5028733;28;20076;-56
2024/03/24 00:27:59;;;;;;;12.32;2.55;;;10.90;84.10;;;;;;5028532;28;20029;-56
2024/03/24 00:30:24;;;;;;;5.38;2.00;;;10.80;84.10;;;;;;5028516;28;20111;-56
2024/03/24 00:32:52;;;;;;;7.85;2.00;;;10.80;84.20;;;;;;5028258;28;20034;-56
2024/03/24 00:35:18;;;;;;;16.75;2.40;;;10.80;84.20;;;;;;5046172;28;20034;-56
2024/03/24 00:37:43;;;;;;;9.90;2.28;;;10.80;84.20;;;;;;4995919;28;20123;-56
2024/03/24 00:40:09;;;;;;;8.20;1.70;;;10.80;84.20;;;;;;5046079;28;20025;-55
2024/03/24 00:42:35;;;;;;;10.82;1.73;;;10.70;84.20;;;;;;5045044;28;20033;-56
2024/03/24 00:45:01;;;;;;;6.30;1.85;;;10.70;84.20;;;;;;5046074;28;20068;-55
2024/03/24 00:47:27;;;;;;;6.35;1.42;;;10.70;84.30;;;;;;5045990;28;20025;-56
2024/03/24 00:49:53;;;;;;;7.13;1.75;;;10.70;84.20;;;;;;5012511;28;20044;-56
2024/03/24 00:52:18;;;;;;;6.88;1.73;;;10.70;84.30;;;;;;5028913;28;20034;-55
2024/03/24 00:54:44;;;;;;;9.25;2.05;;;10.60;84.20;;;;;;5046460;28;20048;-56
2024/03/24 00:57:09;;;;;;;5.55;1.75;;;10.70;84.30;;;;;;5046165;28;20025;-56
2024/03/24 00:59:35;;;;;;;4.50;1.67;;;10.60;84.30;;;;;;5046321;28;20119;-56
2024/03/24 01:02:01;;;;;;;6.20;1.52;;;10.60;84.30;;;;;;5045706;28;20032;-56
2024/03/24 01:04:26;;;;;;;7.60;1.75;;;10.60;84.40;;;;;;5027795;28;20040;-56
2024/03/24 01:06:52;;;;;;;6.75;1.33;;;10.60;84.40;;;;;;5027940;28;20128;-56
2024/03/24 01:09:17;;;;;;;6.53;1.48;;;10.60;84.40;;;;;;5027874;28;20089;-56
2024/03/24 01:11:43;;;;;;;9.48;1.90;;;10.60;84.40;;;;;;5027662;28;20029;-56
2024/03/24 01:14:09;;;;;;;6.63;1.50;;;10.60;84.40;;;;;;5027588;28;20033;-56
2024/03/24 01:16:34;;;;;;;12.50;2.55;;;10.50;84.40;;;;;;5027377;28;20140;-55
2024/03/24 01:19:00;;;;;;;7.03;2.10;;;10.50;84.40;;;;;;5010701;28;20033;-55
2024/03/24 01:21:25;;;;;;;8.18;1.73;;;10.50;84.50;;;;;;5010882;28;20076;-55
2024/03/24 01:23:51;;;;;;;6.97;1.42;;;10.50;84.50;;;;;;5027445;28;20053;-55
2024/03/24 01:26:17;;;;;;;4.28;1.55;;;10.50;84.60;;;;;;5045212;28;20021;-56
2024/03/24 01:28:42;;;;;;;7.90;1.73;;;10.50;84.60;;;;;;5027222;28;20029;-56
2024/03/24 01:31:08;;;;;;;5.15;1.23;;;10.50;84.70;;;;;;5027049;28;20029;-55
2024/03/24 01:33:33;;;;;;;6.95;1.60;;;10.40;84.70;;;;;;5027132;28;20029;-56
2024/03/24 01:35:59;;;;;;;4.22;1.60;;;10.40;84.70;;;;;;5010963;28;20049;-56
2024/03/24 01:38:25;;;;;;;5.15;1.50;;;10.40;84.80;;;;;;5027048;28;20035;-56
2024/03/24 01:40:50;;;;;;;6.45;1.88;;;10.40;84.80;;;;;;5027166;28;20097;-56
2024/03/24 01:43:16;;;;;;;5.47;1.45;;;10.40;84.90;;;;;;5026973;28;20120;-56
2024/03/24 01:45:42;;;;;;;3.90;1.23;;;10.40;84.90;;;;;;5027038;28;20057;-56
2024/03/24 01:48:08;;;;;;;9.35;1.85;;;10.40;85.00;;;;;;5010599;28;20044;-56
2024/03/24 01:50:34;;;;;;;3.55;1.48;;;10.40;85.00;;;;;;5026987;28;20034;-56
2024/03/24 01:52:59;;;;;;;5.63;1.60;;;10.40;85.10;;;;;;5044567;28;20021;-56
2024/03/24 01:55:25;;;;;;;5.35;1.30;;;10.30;85.00;;;;;;5010466;28;20048;-56
2024/03/24 01:57:50;;;;;;;4.03;1.20;;;10.30;85.10;;;;;;4994111;28;20064;-56
2024/03/24 02:00:16;;;;;;;3.38;1.10;;;10.30;85.10;;;;;;5010530;28;20033;-56
2024/03/24 02:02:42;;;;;;;4.25;1.30;;;10.30;85.20;;;;;;5010301;28;20030;-55
2024/03/24 02:05:08;;;;;;;6.13;1.45;;;10.30;85.20;;;;;;5026990;28;20029;-56
2024/03/24 02:07:33;;;;;;;2.70;1.13;;;10.30;85.30;;;;;;5027244;28;20017;-56
2024/03/24 02:09:59;;;;;;;7.20;1.45;;;10.30;85.40;;;;;;5026627;28;20492;-56
2024/03/24 02:12:25;;;;;;;3.60;1.70;;;10.30;85.30;;;;;;5010598;28;20380;-55
2024/03/24 02:14:50;;;;;;;4.05;1.60;;;10.30;85.30;;;;;;5044547;28;20034;-56
2024/03/24 02:17:16;;;;;;;3.40;1.10;;;10.30;85.40;;;;;;5044363;28;20029;-56
2024/03/24 02:19:42;;;;;;;6.63;1.35;;;10.30;86.00;;;;;;5044706;28;20112;-56
2024/03/24 02:22:08;;;;;;;5.38;1.40;;;10.20;85.40;;;;;;5026635;28;20041;-56
2024/03/24 02:24:33;;;;;;;8.88;1.60;;;10.20;85.50;;;;;;5026698;28;20044;-56
2024/03/24 02:26:59;;;;;;;4.93;1.40;;;10.20;85.50;;;;;;5026535;28;20017;-56
2024/03/24 02:29:24;;;;;;;3.20;1.38;;;10.20;85.50;;;;;;5026452;28;20033;-55
2024/03/24 02:31:50;;;;;;;5.50;1.33;;;10.20;85.60;;;;;;5026592;28;20362;-55
2024/03/24 02:34:16;;;;;;;4.03;1.17;;;10.20;85.70;;;;;;5010157;28;20373;-56
2024/03/24 02:36:42;;;;;;;6.60;1.40;;;10.20;85.70;;;;;;5026569;28;20085;-56
2024/03/24 02:39:08;;;;;;;2.83;1.20;;;10.20;85.70;;;;;;5026555;28;20099;-56
2024/03/24 02:41:34;;;;;;;4.45;1.40;;;10.10;85.70;;;;;;5026207;28;20034;-55
2024/03/24 02:43:59;;;;;;;4.13;1.15;;;10.10;85.70;;;;;;5026359;28;20036;-56
2024/03/24 02:46:25;;;;;;;2.63;1.10;;;10.10;85.80;;;;;;5026435;28;20029;-55
2024/03/24 02:48:50;;;;;;;2.67;1.20;;;10.10;85.90;;;;;;5026375;28;20139;-55
2024/03/24 02:51:16;;;;;;;3.30;1.08;;;10.10;85.90;;;;;;5026339;28;20025;-56
2024/03/24 02:53:42;;;;;;;2.80;1.20;;;10.10;86.00;;;;;;5026269;28;20365;-55
2024/03/24 02:56:10;;;;;;;4.13;1.10;;;10.10;86.00;;;;;;5026357;28;20507;-55
2024/03/24 02:58:36;;;;;;;5.03;1.60;;;10.00;85.90;;;;;;5026460;28;20040;-56
2024/03/24 03:01:01;;;;;;;4.80;1.30;;;10.10;86.70;;;;;;5009932;28;20033;-55
2024/03/24 03:03:27;;;;;;;4.43;1.20;;;10.00;86.10;;;;;;5022561;28;20029;-56
2024/03/24 03:05:52;;;;;;;3.25;1.30;;;10.00;86.10;;;;;;5028844;28;20081;-56
2024/03/24 03:08:18;;;;;;;4.57;1.33;;;10.00;86.10;;;;;;5048149;28;20018;-56
2024/03/24 03:10:44;;;;;;;3.75;1.00;;;10.00;86.30;;;;;;5047648;28;20022;-56
2024/03/24 03:13:10;;;;;;;2.60;1.00;;;10.00;86.30;;;;;;5010209;28;20038;-56
2024/03/24 03:15:35;;;;;;;6.55;1.13;;;10.00;86.40;;;;;;5027602;28;20037;-56
2024/03/24 03:18:01;;;;;;;5.32;1.10;;;10.00;86.40;;;;;;5010120;28;20033;-56
2024/03/24 03:20:26;;;;;;;3.08;0.85;;;10.00;86.50;;;;;;5028030;28;20048;-56
2024/03/24 03:22:53;;;;;;;2.75;1.08;;;9.90;86.40;;;;;;4993485;28;20042;-56
2024/03/24 03:25:18;;;;;;;4.43;1.38;;;9.90;86.50;;;;;;5010196;28;20049;-56
2024/03/24 03:27:44;;;;;;;2.83;1.25;;;9.90;86.60;;;;;;5027721;28;20053;-55
2024/03/24 03:30:10;;;;;;;2.67;1.00;;;9.90;86.70;;;;;;5027846;28;20022;-55
2024/03/24 03:32:36;;;;;;;2.63;1.15;;;9.90;86.70;;;;;;5009898;28;20074;-56
2024/03/24 03:35:02;;;;;;;2.28;0.85;;;9.90;86.70;;;;;;5027542;28;20034;-55
2024/03/24 03:37:27;;;;;;;3.33;1.20;;;9.90;86.70;;;;;;5009970;28;20049;-56
2024/03/24 03:39:53;;;;;;;2.05;0.80;;;9.90;86.80;;;;;;5009982;28;20117;-56
2024/03/24 03:42:19;;;;;;;3.30;1.08;;;9.90;86.80;;;;;;4993257;28;20029;-56
2024/03/24 03:44:46;;;;;;;3.60;1.08;;;9.90;86.80;;;;;;5027588;28;20574;-55
2024/03/24 03:47:14;;;;;;;6.18;1.17;;;9.80;86.90;;;;;;5009771;28;20026;-56
2024/03/24 03:49:40;;;;;;;4.40;1.08;;;9.80;86.90;;;;;;5026081;28;20029;-56
2024/03/24 03:52:06;;;;;;;2.13;0.82;;;9.80;87.00;;;;;;5009647;28;20049;-56
2024/03/24 03:54:31;;;;;;;4.90;1.35;;;9.80;87.10;;;;;;5009432;28;20129;-56
2024/03/24 03:56:57;;;;;;;1.88;0.85;;;9.80;87.30;;;;;;5009565;28;20022;-55
2024/03/24 03:59:23;;;;;;;1.77;0.77;;;9.80;87.30;;;;;;5009600;28;20029;-56
2024/03/24 04:01:49;;;;;;;2.63;1.15;;;9.70;87.20;;;;;;5009651;28;20026;-56
2024/03/24 04:04:14;;;;;;;2.03;0.95;;;9.80;87.30;;;;;;4993362;28;20033;-56
2024/03/24 04:06:40;;;;;;;1.98;0.90;;;9.70;87.30;;;;;;5009285;28;20539;-56
2024/03/24 04:09:08;;;;;;;3.80;1.00;;;9.80;87.30;;;;;;5027031;28;20034;-56
2024/03/24 04:11:34;;;;;;;4.15;1.05;;;9.70;87.30;;;;;;5025738;28;20022;-56
2024/03/24 04:14:00;;;;;;;5.13;1.25;;;9.70;87.20;;;;;;5026790;28;20060;-56
2024/03/24 04:16:26;;;;;;;1.65;0.80;;;9.70;87.20;;;;;;5025475;28;20037;-55
2024/03/24 04:18:51;;;;;;;2.15;0.90;;;9.70;87.20;;;;;;5026884;28;20041;-56
2024/03/24 04:21:17;;;;;;;1.63;0.90;;;9.70;87.30;;;;;;5009097;28;20088;-56
2024/03/24 04:23:42;;;;;;;2.47;1.02;;;9.70;87.30;;;;;;5026739;28;20572;-56
2024/03/24 04:26:08;;;;;;;2.67;0.82;;;9.70;87.40;;;;;;5008986;28;20033;-55
2024/03/24 04:28:34;;;;;;;2.20;0.80;;;9.60;87.30;;;;;;5008864;28;20033;-55
2024/03/24 04:31:00;;;;;;;5.55;0.93;;;9.70;87.40;;;;;;5008708;28;20476;-55
2024/03/24 04:33:26;;;;;;;2.08;0.85;;;9.70;87.40;;;;;;5008922;28;20056;-55
2024/03/24 04:35:52;;;;;;;1.92;0.80;;;9.60;87.40;;;;;;5026609;28;20104;-56
2024/03/24 04:38:18;;;;;;;1.60;0.68;;;9.60;87.40;;;;;;4992439;28;20114;-56
2024/03/24 04:40:44;;;;;;;4.95;1.05;;;9.60;87.40;;;;;;5026283;28;20026;-56
2024/03/24 04:43:13;;;;;;;4.03;0.95;;;9.60;87.50;;;;;;5025025;28;20101;-55
2024/03/24 04:45:39;;;;;;;1.23;0.75;;;9.60;87.50;;;;;;4992506;28;20034;-56
2024/03/24 04:48:05;;;;;;;3.25;0.80;;;9.60;87.60;;;;;;5008810;28;20101;-56
2024/03/24 04:50:30;;;;;;;2.35;1.13;;;9.60;87.60;;;;;;5026395;28;20037;-56
2024/03/24 04:52:58;;;;;;;1.98;1.00;;;9.60;87.60;;;;;;5025886;28;20026;-56
2024/03/24 04:55:24;;;;;;;2.50;0.70;;;9.60;87.60;;;;;;5026362;28;20053;-56
2024/03/24 04:57:49;;;;;;;1.25;0.90;;;9.60;87.60;;;;;;5025876;28;20026;-56
2024/03/24 05:00:16;;;;;;;2.47;0.90;;;9.50;87.60;;;;;;5024623;28;20037;-56
2024/03/24 05:02:41;;;;;;;2.25;0.80;;;9.50;87.60;;;;;;5025939;28;20153;-56
2024/03/24 05:05:07;;;;;;;2.22;0.70;;;9.50;87.70;;;;;;5007924;28;20155;-56
2024/03/24 05:07:33;;;;;;;2.00;0.60;;;9.50;87.60;;;;;;5025716;28;20026;-56
2024/03/24 05:09:58;;;;;;;2.13;0.63;;;9.50;87.60;;;;;;4991767;28;20046;-55
2024/03/24 05:12:24;;;;;;;1.13;0.65;;;9.50;87.70;;;;;;5025537;28;20337;-56
2024/03/24 05:14:50;;;;;;;1.77;0.80;;;9.50;87.70;;;;;;5024462;28;20456;-56
2024/03/24 05:17:17;;;;;;;1.67;0.70;;;9.50;87.70;;;;;;5025692;28;20048;-56
2024/03/24 05:19:43;;;;;;;1.52;0.82;;;9.50;87.70;;;;;;5008270;28;20033;-56
2024/03/24 05:22:09;;;;;;;2.47;0.88;;;9.50;87.70;;;;;;5007804;28;20033;-56
2024/03/24 05:24:35;;;;;;;1.92;0.70;;;9.50;87.90;;;;;;5007734;28;20476;-56
2024/03/24 05:27:04;;;;;;;2.80;0.90;;;9.50;87.90;;;;;;5007684;28;20129;-56
2024/03/24 05:29:30;;;;;;;1.48;0.73;;;9.50;88.60;;;;;;5007799;28;20030;-56
2024/03/24 05:31:57;;;;;;;3.28;0.80;;;9.40;88.00;;;;;;5025359;28;20029;-56
2024/03/24 05:34:23;;;;;;;2.53;0.82;;;9.50;88.20;;;;;;5007806;28;20041;-56
2024/03/24 05:36:48;;;;;;;2.80;0.70;;;9.40;88.40;;;;;;5007555;28;20087;-56
2024/03/24 05:39:14;;;;;;;1.60;0.80;;;9.40;88.50;;;;;;5007696;28;20100;-56
2024/03/24 05:41:40;;;;;;;2.03;0.60;;;9.30;88.60;;;;;;5025308;28;20471;-56
2024/03/24 05:44:05;;;;;;;2.28;0.70;;;9.30;88.60;;;;;;5007374;28;20061;-56
2024/03/24 05:46:31;;;;;;;3.80;1.02;;;9.30;88.60;;;;;;5025191;28;20499;-55
2024/03/24 05:48:56;;;;;;;1.65;0.50;;;9.30;88.60;;;;;;5025318;28;20532;-55
2024/03/24 05:51:22;;;;;;;2.05;0.70;;;9.30;88.70;;;;;;5007206;28;20121;-55
2024/03/24 05:53:48;;;;;;;2.88;0.75;;;9.30;89.40;;;;;;5024849;28;20033;-56
2024/03/24 05:56:14;;;;;;;1.67;0.50;;;9.20;88.70;;;;;;5007556;28;20049;-55
2024/03/24 05:58:40;;;;;;;2.05;0.77;;;9.20;88.70;;;;;;5007242;28;20030;-56
2024/03/24 06:01:06;;;;;;;1.75;0.70;;;9.20;88.70;;;;;;5025088;28;20022;-56
2024/03/24 06:03:32;;;;;;;1.88;0.68;;;9.20;88.90;;;;;;5007057;28;20032;-55
2024/03/24 06:05:57;;;;;;;0.75;0.43;;;9.20;88.90;;;;;;5007332;28;20085;-56
2024/03/24 06:08:23;;;;;;;3.38;0.70;;;9.10;88.90;;;;;;5007243;28;20022;-55
2024/03/24 06:10:49;;;;;;;0.77;0.50;;;9.10;88.90;;;;;;5007117;28;20105;-55
2024/03/24 06:13:15;;;;;;;1.35;0.52;;;9.10;88.90;;;;;;5023645;28;20029;-55
2024/03/24 06:15:41;;;;;;;1.23;0.52;;;9.10;89.00;;;;;;5024806;28;20038;-55
2024/03/24 06:18:07;;;;;;;1.48;0.50;;;9.10;88.90;;;;;;4990924;28;20030;-55
2024/03/24 06:20:34;;;;;;;0.50;0.40;;;9.00;89.00;;;;;;5007123;28;20065;-55
2024/03/24 06:23:01;;;;;;;1.10;0.38;;;9.00;89.10;;;;;;5006511;28;20053;-56
2024/03/24 06:25:27;;;;;;;2.63;0.50;;;9.00;89.10;;;;;;5007239;28;20125;-55
2024/03/24 06:27:52;;;;;;;1.00;0.60;;;9.00;89.10;;;;;;5006812;28;20491;-55
2024/03/24 06:30:18;;;;;;;1.20;0.47;;;9.00;89.10;;;;;;5006789;28;20030;-55
2024/03/24 06:32:44;;;;;;;1.88;0.40;;;8.90;89.10;;;;;;5024592;28;20045;-55
2024/03/24 06:35:12;;;;;;;1.27;0.60;;;8.90;89.10;;;;;;5006510;28;20094;-55
2024/03/24 06:37:38;;;;;;;0.77;0.55;;;8.90;89.10;;;;;;5006724;28;20033;-55
2024/03/24 06:40:08;;;;;;;1.17;0.50;;;8.90;89.10;;;;;;5008175;28;20037;-55
2024/03/24 06:42:46;;;;;;;1.02;0.50;;;8.90;89.10;;;;;;5010553;28;20026;-55
2024/03/24 06:45:12;;;;;;;0.85;0.30;;;8.90;89.10;;;;;;5010785;28;20057;-55
2024/03/24 06:47:38;;;;;;;1.38;0.50;;;8.90;89.10;;;;;;5027043;28;20034;-56
2024/03/24 06:50:05;;;;;;;0.43;0.32;;;8.90;89.10;;;;;;5010714;28;20036;-55
2024/03/24 06:52:32;;;;;;;0.75;0.30;;;8.90;89.20;;;;;;5010954;28;20105;-56
2024/03/24 06:54:57;;;;;;;0.82;0.40;;;8.90;89.10;;;;;;5010333;28;20046;-55
2024/03/24 06:57:23;;;;;;;0.77;0.47;;;8.90;89.20;;;;;;5010624;28;20108;-55
2024/03/24 06:59:49;;;;;;;1.75;0.50;;;8.90;89.10;;;;;;5010668;28;20037;-55
2024/03/24 07:02:14;;;;;;;0.32;0.20;;;8.90;89.10;;;;;;5010519;28;20026;-56
2024/03/24 07:04:40;;;;;;;1.60;0.50;;;8.90;89.20;;;;;;5010536;28;20030;-55
2024/03/24 07:07:06;;;;;;;1.10;0.50;;;8.90;89.20;;;;;;5010628;28;20136;-58
2024/03/24 07:09:31;;;;;;;0.50;0.20;;;8.80;89.10;;;;;;5010549;28;20057;-55
2024/03/24 07:11:57;;;;;;;1.05;0.30;;;8.80;89.20;;;;;;5026787;28;20029;-55
2024/03/24 07:14:22;;;;;;;0.80;0.43;;;8.80;89.10;;;;;;5027625;28;20041;-55
2024/03/24 07:16:48;;;;;;;3.50;0.50;;;8.80;89.20;;;;;;5010412;28;20030;-55
2024/03/24 07:19:15;;;;;;;0.40;0.30;;;8.80;89.20;;;;;;5027931;28;20045;-55
2024/03/24 07:21:41;;;;;;;2.15;0.50;;;8.80;89.20;;;;;;5026315;28;20111;-55
2024/03/24 07:24:08;;;;;;;0.40;0.25;;;8.90;89.30;;;;;;5010305;28;20038;-55
2024/03/24 07:26:36;;;;;;;2.22;0.50;;;8.90;89.30;;;;;;5010354;28;20026;-55
2024/03/24 07:29:01;;;;;;;1.10;0.30;;;8.80;89.10;;;;;;5010436;28;20029;-55
2024/03/24 07:31:27;;;;;;;0.47;0.32;;;8.80;89.10;;;;;;5027649;28;20025;-55
2024/03/24 07:33:53;;;;;;;0.75;0.32;;;8.80;89.20;;;;;;4993294;28;20034;-56
2024/03/24 07:36:18;;;;;;;1.05;0.50;;;8.90;89.20;;;;;;5009940;28;20111;-55
2024/03/24 07:38:44;;;;;;;2.00;0.30;;;8.90;89.10;;;;;;5026221;28;20053;-55
2024/03/24 07:41:09;;;;;;;0.70;0.47;;;8.90;89.10;;;;;;5009563;28;20030;-55
2024/03/24 07:43:35;;;;;;;0.80;0.50;;;8.90;89.10;;;;;;5026180;28;20034;-56
2024/03/24 07:46:01;;;;;;;0.77;0.22;;;8.90;89.00;;;;;;5009585;28;20018;-56
2024/03/24 07:48:27;;;;;;;1.30;0.30;;;8.90;89.60;;;;;;5027359;28;20437;-55
2024/03/24 07:50:53;;;;;;;0.98;0.38;;;8.90;88.90;;;;;;5009252;28;20029;-56
2024/03/24 07:53:19;;;;;;;1.15;0.40;;;9.00;89.00;;;;;;5026909;28;20038;-55
2024/03/24 07:55:44;;;;;;;1.40;0.40;;;8.90;89.00;;;;;;5033562;28;20036;-55
2024/03/24 07:58:10;;;;;;;0.70;0.40;;;8.90;89.00;;;;;;4981131;28;20120;-56
2024/03/24 08:00:35;;;;;;;1.17;0.40;;;8.90;89.00;;;;;;5026934;28;20434;-55
2024/03/24 08:03:02;;;;;;;1.02;0.45;;;8.90;89.00;;;;;;5009081;28;20033;-56
2024/03/24 08:05:28;;;;;;;1.45;0.60;;;8.90;89.00;;;;;;5027042;28;20049;-55
2024/03/24 08:07:53;;;;;;;1.15;0.60;;;8.90;89.00;;;;;;5009469;28;20137;-58
2024/03/24 08:10:21;;;;;;;1.17;0.50;;;8.90;89.00;;;;;;5026999;28;20041;-56
2024/03/24 08:12:47;;;;;;;1.00;0.40;;;8.90;88.90;;;;;;5009123;28;20030;-56
2024/03/24 08:15:13;;;;;;;0.82;0.40;;;9.00;89.00;;;;;;5009155;28;20042;-55
2024/03/24 08:17:39;;;;;;;0.40;0.40;;;9.00;88.90;;;;;;5007398;28;20030;-55
2024/03/24 08:20:06;;;;;;;1.45;0.60;;;9.00;88.90;;;;;;5025101;28;20049;-55
2024/03/24 08:22:32;;;;;;;1.00;0.50;;;9.00;88.80;;;;;;5008417;28;20018;-56
2024/03/24 08:24:57;;;;;;;0.45;0.30;;;9.00;88.80;;;;;;5008521;28;20033;-57
2024/03/24 08:27:23;;;;;;;0.60;0.30;;;9.00;88.70;;;;;;5026668;28;20026;-56
2024/03/24 08:29:49;;;;;;;1.70;0.40;;;9.00;88.60;;;;;;5026485;28;20125;-58
2024/03/24 08:32:16;;;;;;;1.73;0.88;;;9.00;88.60;;;;;;5008369;28;20025;-58
2024/03/24 08:34:43;;;;;;;1.45;0.50;;;9.00;88.60;;;;;;5008637;28;20117;-56
2024/03/24 08:37:08;;;;;;;1.15;0.65;;;9.00;88.60;;;;;;5024256;28;20056;-56
2024/03/24 08:39:34;;;;;;;1.33;0.52;;;9.00;88.60;;;;;;5040877;28;20038;-56
2024/03/24 08:42:00;;;;;;;0.70;0.50;;;9.00;88.60;;;;;;5007241;28;20129;-56
2024/03/24 08:44:26;;;;;;;0.77;0.60;;;9.00;88.60;;;;;;4992300;28;20076;-56
2024/03/24 08:46:51;;;;;;;0.82;0.40;;;9.00;88.60;;;;;;4991560;28;20022;-56
2024/03/24 08:49:17;;;;;;;1.88;0.63;;;9.00;88.60;;;;;;5006445;28;20026;-55
2024/03/24 08:51:43;;;;;;;0.70;0.35;;;9.00;88.50;;;;;;5008358;28;20101;-55
2024/03/24 08:54:08;;;;;;;1.73;0.50;;;9.00;88.50;;;;;;5007564;28;20061;-56
2024/03/24 08:56:34;;;;;;;1.63;0.50;;;9.10;88.50;;;;;;5008356;28;20030;-56
2024/03/24 08:59:00;;;;;;;1.40;0.50;;;9.10;88.30;;;;;;4991520;28;20038;-56
2024/03/24 09:01:26;;;;;;;1.20;0.50;;;9.10;88.20;;;;;;5006902;28;20296;-55
2024/03/24 09:03:52;;;;;;;1.02;0.30;;;9.10;88.10;;;;;;5007317;28;20056;-56
2024/03/24 09:06:17;;;;;;;1.23;0.50;;;9.10;88.00;;;;;;5026236;28;20468;-58
2024/03/24 09:08:43;;;;;;;0.77;0.47;;;9.10;88.20;;;;;;5008604;28;20026;-58
2024/03/24 09:11:09;;;;;;;1.67;0.50;;;9.10;88.10;;;;;;5024977;28;20076;-56
2024/03/24 09:13:36;;;;;;;1.00;0.63;;;9.10;87.90;;;;;;5006292;28;20031;-56
2024/03/24 09:16:02;;;;;;;1.15;0.50;;;9.20;88.00;;;;;;5026562;28;20091;-56
2024/03/24 09:18:28;;;;;;;1.42;0.52;;;9.20;88.00;;;;;;4999107;28;20057;-56
2024/03/24 09:20:56;;;;;;;7.50;0.60;;;9.10;87.70;;;;;;5006638;28;20034;-56
2024/03/24 09:23:24;;;;;;;4.22;0.82;;;9.20;87.70;;;;;;5008353;28;20054;-56
2024/03/24 09:25:50;;;;;;;5.05;1.00;;;9.10;88.30;;;;;;5006394;28;20038;-55
2024/03/24 09:28:15;;;;;;;13.38;1.70;;;9.20;87.70;;;;;;5007481;28;20480;-56
2024/03/24 09:30:41;;;;;;;14.98;1.25;;;9.10;87.60;;;;;;5025330;28;20102;-56
2024/03/24 09:33:07;;;;;;;8.57;1.63;;;9.20;87.80;;;;;;5009312;28;20029;-56
2024/03/24 09:35:32;;;;;;;15.05;1.75;;;9.20;87.40;;;;;;4990404;28;20093;-56
2024/03/24 09:37:58;;;;;;;16.60;2.33;;;9.20;87.00;;;;;;4990662;28;20030;-56
2024/03/24 09:40:25;;;;;;;24.70;3.58;;;9.20;86.90;;;;;;5006710;28;20030;-56
2024/03/24 09:42:50;;;;;;;51.78;4.88;;;9.30;87.10;;;;;;5022376;28;20484;-56
2024/03/24 09:45:17;;;;;;;36.53;4.05;;;9.30;87.20;;;;;;4990045;28;20034;-56
2024/03/24 09:47:43;;;;;;;22.67;2.10;;;9.30;87.00;;;;;;4988131;28;20055;-56
2024/03/24 09:50:09;;;;;;;20.17;2.75;;;9.30;86.90;;;;;;4992221;28;20026;-58
2024/03/24 09:52:34;;;;;;;28.63;3.58;;;9.30;86.70;;;;;;4973798;28;20025;-58
2024/03/24 09:55:00;;;;;;;26.33;2.70;;;9.40;86.70;;;;;;4989678;28;20053;-58
2024/03/24 09:57:34;;;;;;;32.88;2.65;;;9.40;86.60;;;;;;4989126;28;20034;-56
2024/03/24 10:00:00;;;;;;;32.38;3.67;;;9.40;86.30;;;;;;4986674;28;20044;-58
2024/03/24 10:02:26;;;;;;;40.10;4.68;;;9.50;86.40;;;;;;4987515;28;20065;-56
2024/03/24 10:04:54;;;;;;;44.42;6.07;;;9.50;86.40;;;;;;4990623;28;20069;-56
2024/03/24 10:07:19;;;;;;;30.80;4.72;;;9.60;86.40;;;;;;5023843;28;20030;-55
2024/03/24 10:09:45;;;;;;;45.22;5.20;;;9.60;86.40;;;;;;5023898;28;20064;-55
2024/03/24 10:12:12;;;;;;;47.67;5.32;;;9.70;86.30;;;;;;4990159;28;20053;-56
2024/03/24 10:14:38;;;;;;;40.15;5.68;;;9.70;86.50;;;;;;5024397;28;20516;-56
2024/03/24 10:17:16;;;;;;;71.97;7.68;;;9.80;86.30;;;;;;5037671;28;20030;-56
2024/03/24 10:19:54;;;;;;;63.30;6.57;;;9.80;85.90;;;;;;4989909;28;20049;-56
2024/03/24 10:22:19;;;;;;;65.40;6.82;;;9.80;85.80;;;;;;5007865;28;20041;-57
2024/03/24 10:24:45;;;;;;;76.35;8.30;;;9.80;85.70;;;;;;5031041;28;20026;-56
2024/03/24 10:27:12;;;;;;;48.13;7.13;;;9.90;85.50;;;;;;5004735;28;20022;-57
2024/03/24 10:29:38;;;;;;;107.57;10.40;;;9.90;85.40;;;;;;4997663;28;20034;-56
2024/03/24 10:32:04;;;;;;;94.13;8.85;;;9.90;85.40;;;;;;4990571;28;20083;-56
2024/03/24 10:34:35;;;;;;;134.93;13.18;;;10.00;85.30;;;;;;5005083;28;20050;-56
2024/03/24 10:37:01;;;;;;;121.97;12.88;;;10.00;85.20;;;;;;4997011;28;20022;-55
2024/03/24 10:39:27;;;;;;;98.90;11.38;;;10.00;85.20;;;;;;4987156;28;20049;-56
2024/03/24 10:41:53;;;;;;;107.47;11.48;;;10.10;85.30;;;;;;5018115;28;20044;-57
2024/03/24 10:44:19;;;;;;;113.18;11.50;;;10.10;85.40;;;;;;5006763;28;20057;-55
2024/03/24 10:46:44;;;;;;;86.28;10.38;;;10.10;85.50;;;;;;5006332;28;20027;-55
2024/03/24 10:49:10;;;;;;;120.80;14.70;;;10.10;85.70;;;;;;4986753;28;20474;-56
2024/03/24 10:51:36;;;;;;;116.55;11.45;;;10.10;85.80;;;;;;4988326;28;20029;-56
2024/03/24 10:54:02;;;;;;;128.40;15.05;;;10.10;85.90;;;;;;5005074;28;20038;-55
2024/03/24 10:56:32;;;;;;;144.98;14.90;;;10.20;86.30;;;;;;4997973;28;20134;-55
2024/03/24 10:58:59;;;;;;;154.00;16.40;;;10.20;86.40;;;;;;5004757;28;20081;-56
2024/03/24 11:01:24;;;;;;;177.18;19.38;;;10.30;86.50;;;;;;5004954;28;20026;-55
2024/03/24 11:03:51;;;;;;;180.43;18.95;;;10.30;86.50;;;;;;4988661;28;20033;-56
2024/03/24 11:06:16;;;;;;;158.70;17.17;;;10.30;86.50;;;;;;5000013;28;20084;-56
2024/03/24 11:08:42;;;;;;;138.38;14.00;;;10.40;86.50;;;;;;5005039;28;20030;-56
2024/03/24 11:11:08;;;;;;;96.35;10.10;;;10.30;86.50;;;;;;5003751;28;20018;-56
2024/03/24 11:13:35;;;;;;;172.88;16.92;;;10.30;86.40;;;;;;4999521;28;20080;-55
2024/03/24 11:16:02;;;;;;;126.15;14.30;;;10.20;86.80;;;;;;5020210;28;20072;-55
2024/03/24 11:18:31;;;;;;;106.82;12.68;;;10.20;87.20;;;;;;4986879;28;20029;-54
2024/03/24 11:21:01;;;;;;;212.13;20.17;;;10.30;87.40;;;;;;5002478;28;20033;-54
2024/03/24 11:23:34;;;;;;;131.68;14.80;;;10.20;87.40;;;;;;5000339;28;20164;-55
2024/03/24 11:26:02;;;;;;;190.35;18.08;;;10.30;87.50;;;;;;5010565;28;20030;-55
2024/03/24 11:28:43;;;;;;;158.27;17.75;;;10.40;87.50;;;;;;5018999;28;20072;-56
2024/03/24 11:31:32;;;;;;;126.10;15.02;;;10.40;87.70;;;;;;5006936;28;20022;-55
2024/03/24 11:34:05;;;;;;;152.02;16.98;;;10.40;87.60;;;;;;5019183;28;20069;-56
2024/03/24 11:36:32;;;;;;;163.25;17.52;;;10.40;87.70;;;;;;4996822;28;20025;-56
2024/03/24 11:38:58;;;;;;;164.48;18.02;;;10.50;87.70;;;;;;5011429;28;20033;-56
2024/03/24 11:41:24;;;;;;;182.15;17.00;;;10.50;87.90;;;;;;5010714;28;20060;-55
2024/03/24 11:43:57;;;;;;;174.43;18.20;;;10.50;88.10;;;;;;4997386;28;20033;-55
2024/03/24 11:46:22;;;;;;;186.57;18.88;;;10.50;88.10;;;;;;5036586;28;20033;-56
2024/03/24 11:48:49;;;;;;;198.20;17.98;;;10.50;88.30;;;;;;5007497;28;20094;-56
2024/03/24 11:51:15;;;;;;;181.82;19.38;;;10.50;88.50;;;;;;5008414;28;20400;-56
2024/03/24 11:53:41;;;;;;;148.18;16.95;;;10.50;88.60;;;;;;5015315;28;20042;-56
2024/03/24 11:56:06;;;;;;;186.77;17.73;;;10.60;88.60;;;;;;5008034;28;20053;-55
2024/03/24 11:58:32;;;;;;;199.40;23.33;;;10.60;88.50;;;;;;5004672;28;20348;-56
2024/03/24 12:01:00;;;;;;;192.43;23.60;;;10.70;88.40;;;;;;5023737;28;20053;-55
2024/03/24 12:03:25;;;;;;;240.73;24.60;;;10.70;88.40;;;;;;5022056;28;20049;-55
2024/03/24 12:05:52;;;;;;;183.20;17.90;;;10.70;88.50;;;;;;5019910;28;20041;-55
2024/03/24 12:08:19;;;;;;;160.52;18.63;;;10.90;88.50;;;;;;4988710;28;20025;-55
2024/03/24 12:10:44;;;;;;;187.88;18.42;;;10.90;88.60;;;;;;4989103;28;20026;-55
2024/03/24 12:13:10;;;;;;;164.70;18.60;;;10.90;88.50;;;;;;5027958;28;20353;-55
2024/03/24 12:15:35;;;;;;;206.90;22.38;;;11.00;88.40;;;;;;5002863;28;20041;-55
2024/03/24 12:18:08;;;;;;;204.85;23.00;;;11.00;88.40;;;;;;5007614;28;20080;-56
2024/03/24 12:20:34;;;;;;;196.93;20.77;;;11.10;88.30;;;;;;5006459;28;20164;-58
2024/03/24 12:23:00;;;;;;;196.80;21.75;;;11.10;88.00;;;;;;5006083;28;20038;-57
2024/03/24 12:25:25;;;;;;;215.02;22.90;;;11.20;88.10;;;;;;5006753;28;20034;-56
2024/03/24 12:27:55;;;;;;;239.65;25.23;;;11.30;87.70;;;;;;5006198;28;20432;-57
2024/03/24 12:30:21;;;;;;;219.30;24.67;;;11.40;87.20;;;;;;5004877;28;20022;-58
2024/03/24 12:32:48;;;;;;;261.35;26.70;;;11.40;87.40;;;;;;5002125;28;20101;-58
2024/03/24 12:35:16;;;;;;;253.73;25.48;;;11.40;87.20;;;;;;5017167;28;20025;-56
2024/03/24 12:37:42;;;;;;;296.67;29.17;;;11.50;87.80;;;;;;5005340;28;20022;-56
2024/03/24 12:40:21;;;;;;;273.58;29.48;;;11.50;86.70;;;;;;5009202;28;20040;-58